Terminal Aerodrome Forecast
Issued by NWS

Home | Current Version | Previous Version | Text Only | Print | Product List | Glossary On
Versions: 1 2 3 4 5 6 7 8 9 10 11 12 13 14 15 16 17 18 19 20 21 22 23 24 25
000
FTUS43 KDLH 150500
TAFHIB
TAF
KHIB 150526Z 1506/1606 30005KT P6SM BKN060
     FM151400 33010KT P6SM SCT060
     FM152000 30012KT P6SM SCT060
     FM160000 28004KT P6SM FEW060=

USA.gov is the U.S. government's official web portal to all federal, state and local government web resources and services.